sensor_id;sensor_type;location;lat;lon;timestamp;temperature;humidity
22540;DHT22;11436;50.860;4.334;2022-08-07T00:01:19;18.10;99.90
22540;DHT22;11436;50.860;4.334;2022-08-07T00:03:45;18.00;99.90
22540;DHT22;11436;50.860;4.334;2022-08-07T00:06:11;18.00;99.90
22540;DHT22;11436;50.860;4.334;2022-08-07T00:08:37;18.00;99.90
22540;DHT22;11436;50.860;4.334;2022-08-07T00:11:04;18.00;99.90
22540;DHT22;11436;50.860;4.334;2022-08-07T00:13:30;17.90;99.90
22540;DHT22;11436;50.860;4.334;2022-08-07T00:15:56;17.80;99.90
22540;DHT22;11436;50.860;4.334;2022-08-07T00:18:24;18.00;99.90
22540;DHT22;11436;50.860;4.334;2022-08-07T00:20:55;17.90;99.90
22540;DHT22;11436;50.860;4.334;2022-08-07T00:23:21;18.10;99.90
22540;DHT22;11436;50.860;4.334;2022-08-07T00:25:48;17.80;99.90
22540;DHT22;11436;50.860;4.334;2022-08-07T00:28:14;17.90;99.90
22540;DHT22;11436;50.860;4.334;2022-08-07T00:30:40;17.90;99.90
22540;DHT22;11436;50.860;4.334;2022-08-07T00:33:06;17.80;99.90
22540;DHT22;11436;50.860;4.334;2022-08-07T00:35:32;17.70;99.90
22540;DHT22;11436;50.860;4.334;2022-08-07T00:37:58;17.60;99.90
22540;DHT22;11436;50.860;4.334;2022-08-07T00:40:25;17.60;99.90
22540;DHT22;11436;50.860;4.334;2022-08-07T00:42:50;17.60;99.90
22540;DHT22;11436;50.860;4.334;2022-08-07T00:45:16;17.60;99.90
22540;DHT22;11436;50.860;4.334;2022-08-07T00:47:42;17.60;99.90
22540;DHT22;11436;50.860;4.334;2022-08-07T00:50:08;17.60;99.90
22540;DHT22;11436;50.860;4.334;2022-08-07T00:52:33;17.60;99.90
22540;DHT22;11436;50.860;4.334;2022-08-07T00:54:59;17.70;99.90
22540;DHT22;11436;50.860;4.334;2022-08-07T00:57:25;17.60;99.90
22540;DHT22;11436;50.860;4.334;2022-08-07T00:59:51;17.60;99.90
22540;DHT22;11436;50.860;4.334;2022-08-07T01:02:17;17.60;99.90
22540;DHT22;11436;50.860;4.334;2022-08-07T01:04:44;17.70;99.90
22540;DHT22;11436;50.860;4.334;2022-08-07T01:07:11;17.70;99.90
22540;DHT22;11436;50.860;4.334;2022-08-07T01:09:37;17.70;99.90
22540;DHT22;11436;50.860;4.334;2022-08-07T01:12:03;17.60;99.90
22540;DHT22;11436;50.860;4.334;2022-08-07T01:14:30;17.50;99.90
22540;DHT22;11436;50.860;4.334;2022-08-07T01:16:56;17.40;99.90
22540;DHT22;11436;50.860;4.334;2022-08-07T01:19:23;17.30;99.90
22540;DHT22;11436;50.860;4.334;2022-08-07T01:21:51;17.20;99.90
22540;DHT22;11436;50.860;4.334;2022-08-07T01:24:17;17.10;99.90
22540;DHT22;11436;50.860;4.334;2022-08-07T01:26:43;17.30;99.90
22540;DHT22;11436;50.860;4.334;2022-08-07T01:29:09;17.20;99.90
22540;DHT22;11436;50.860;4.334;2022-08-07T01:31:38;17.10;99.90
22540;DHT22;11436;50.860;4.334;2022-08-07T01:34:04;17.10;99.90
22540;DHT22;11436;50.860;4.334;2022-08-07T01:36:31;17.10;99.90
22540;DHT22;11436;50.860;4.334;2022-08-07T01:38:57;17.10;99.90
22540;DHT22;11436;50.860;4.334;2022-08-07T01:41:23;17.10;99.90
22540;DHT22;11436;50.860;4.334;2022-08-07T01:43:49;17.00;99.90
22540;DHT22;11436;50.860;4.334;2022-08-07T01:46:16;17.20;99.90
22540;DHT22;11436;50.860;4.334;2022-08-07T01:48:43;17.40;99.90
22540;DHT22;11436;50.860;4.334;2022-08-07T01:51:19;17.40;99.90
22540;DHT22;11436;50.860;4.334;2022-08-07T01:53:48;17.30;99.90
22540;DHT22;11436;50.860;4.334;2022-08-07T01:56:19;17.20;99.90
22540;DHT22;11436;50.860;4.334;2022-08-07T01:58:56;17.10;99.90
22540;DHT22;11436;50.860;4.334;2022-08-07T02:01:27;17.10;99.90
22540;DHT22;11436;50.860;4.334;2022-08-07T02:04:02;17.00;99.90
22540;DHT22;11436;50.860;4.334;2022-08-07T02:06:32;17.00;99.90
22540;DHT22;11436;50.860;4.334;2022-08-07T02:09:02;16.90;99.90
22540;DHT22;11436;50.860;4.334;2022-08-07T02:11:30;16.90;99.90
22540;DHT22;11436;50.860;4.334;2022-08-07T02:13:57;16.90;99.90
22540;DHT22;11436;50.860;4.334;2022-08-07T02:16:24;16.90;99.90
22540;DHT22;11436;50.860;4.334;2022-08-07T02:18:51;16.90;99.90
22540;DHT22;11436;50.860;4.334;2022-08-07T02:21:18;16.90;99.90
22540;DHT22;11436;50.860;4.334;2022-08-07T02:23:45;16.90;99.90
22540;DHT22;11436;50.860;4.334;2022-08-07T02:26:12;16.90;99.90
22540;DHT22;11436;50.860;4.334;2022-08-07T02:28:39;16.90;99.90
22540;DHT22;11436;50.860;4.334;2022-08-07T02:31:06;16.90;99.90
22540;DHT22;11436;50.860;4.334;2022-08-07T02:33:33;16.80;99.90
22540;DHT22;11436;50.860;4.334;2022-08-07T02:36:00;16.80;99.90
22540;DHT22;11436;50.860;4.334;2022-08-07T02:38:28;16.80;99.90
22540;DHT22;11436;50.860;4.334;2022-08-07T02:40:57;16.70;99.90
22540;DHT22;11436;50.860;4.334;2022-08-07T02:43:25;16.70;99.90
22540;DHT22;11436;50.860;4.334;2022-08-07T02:45:52;16.70;99.90
22540;DHT22;11436;50.860;4.334;2022-08-07T02:48:19;16.70;99.90
22540;DHT22;11436;50.860;4.334;2022-08-07T02:50:47;16.70;99.90
22540;DHT22;11436;50.860;4.334;2022-08-07T02:53:21;16.70;99.90
22540;DHT22;11436;50.860;4.334;2022-08-07T02:55:49;16.60;99.90
22540;DHT22;11436;50.860;4.334;2022-08-07T02:58:20;16.60;99.90
22540;DHT22;11436;50.860;4.334;2022-08-07T03:00:49;16.60;99.90
22540;DHT22;11436;50.860;4.334;2022-08-07T03:03:16;16.60;99.90
22540;DHT22;11436;50.860;4.334;2022-08-07T03:05:43;16.60;99.90
22540;DHT22;11436;50.860;4.334;2022-08-07T03:08:10;16.60;99.90
22540;DHT22;11436;50.860;4.334;2022-08-07T03:10:38;16.60;99.90
22540;DHT22;11436;50.860;4.334;2022-08-07T03:13:05;16.60;99.90
22540;DHT22;11436;50.860;4.334;2022-08-07T03:15:31;16.60;99.90
22540;DHT22;11436;50.860;4.334;2022-08-07T03:17:58;16.60;99.90
22540;DHT22;11436;50.860;4.334;2022-08-07T03:20:24;16.50;99.90
22540;DHT22;11436;50.860;4.334;2022-08-07T03:22:51;16.50;99.90
22540;DHT22;11436;50.860;4.334;2022-08-07T03:25:18;16.50;99.90
22540;DHT22;11436;50.860;4.334;2022-08-07T03:27:45;16.50;99.90
22540;DHT22;11436;50.860;4.334;2022-08-07T03:30:13;16.50;99.90
22540;DHT22;11436;50.860;4.334;2022-08-07T03:32:41;16.50;99.90
22540;DHT22;11436;50.860;4.334;2022-08-07T03:35:21;16.40;99.90
22540;DHT22;11436;50.860;4.334;2022-08-07T03:37:57;16.40;99.90
22540;DHT22;11436;50.860;4.334;2022-08-07T03:40:24;16.40;99.90
22540;DHT22;11436;50.860;4.334;2022-08-07T03:42:51;16.40;99.90
22540;DHT22;11436;50.860;4.334;2022-08-07T03:45:21;16.40;99.90
22540;DHT22;11436;50.860;4.334;2022-08-07T03:47:48;16.40;99.90
22540;DHT22;11436;50.860;4.334;2022-08-07T03:50:16;16.40;99.90
22540;DHT22;11436;50.860;4.334;2022-08-07T03:52:46;16.30;99.90
22540;DHT22;11436;50.860;4.334;2022-08-07T03:55:12;16.30;99.90
22540;DHT22;11436;50.860;4.334;2022-08-07T03:57:38;16.40;99.90
22540;DHT22;11436;50.860;4.334;2022-08-07T04:00:06;16.50;99.90
22540;DHT22;11436;50.860;4.334;2022-08-07T04:02:32;16.50;99.90
22540;DHT22;11436;50.860;4.334;2022-08-07T04:04:58;16.50;99.90
22540;DHT22;11436;50.860;4.334;2022-08-07T04:07:23;16.70;99.90
22540;DHT22;11436;50.860;4.334;2022-08-07T04:09:49;16.70;99.90
22540;DHT22;11436;50.860;4.334;2022-08-07T04:12:16;16.60;99.90
22540;DHT22;11436;50.860;4.334;2022-08-07T04:14:42;16.60;99.90
22540;DHT22;11436;50.860;4.334;2022-08-07T04:17:08;16.40;99.90
22540;DHT22;11436;50.860;4.334;2022-08-07T04:19:34;16.20;99.90
22540;DHT22;11436;50.860;4.334;2022-08-07T04:22:03;16.10;99.90
22540;DHT22;11436;50.860;4.334;2022-08-07T04:24:30;16.00;99.90
22540;DHT22;11436;50.860;4.334;2022-08-07T04:26:56;16.10;99.90
22540;DHT22;11436;50.860;4.334;2022-08-07T04:29:22;16.10;99.90
22540;DHT22;11436;50.860;4.334;2022-08-07T04:31:48;15.90;99.90
22540;DHT22;11436;50.860;4.334;2022-08-07T04:34:14;16.00;99.90
22540;DHT22;11436;50.860;4.334;2022-08-07T04:36:40;16.10;99.90
22540;DHT22;11436;50.860;4.334;2022-08-07T04:39:07;16.10;99.90
22540;DHT22;11436;50.860;4.334;2022-08-07T04:41:33;16.00;99.90
22540;DHT22;11436;50.860;4.334;2022-08-07T04:44:00;16.00;99.90
22540;DHT22;11436;50.860;4.334;2022-08-07T04:46:41;16.00;99.90
22540;DHT22;11436;50.860;4.334;2022-08-07T04:49:20;16.00;99.90
22540;DHT22;11436;50.860;4.334;2022-08-07T04:51:55;16.10;99.90
22540;DHT22;11436;50.860;4.334;2022-08-07T04:54:31;16.10;99.90
22540;DHT22;11436;50.860;4.334;2022-08-07T04:57:26;16.10;99.90
22540;DHT22;11436;50.860;4.334;2022-08-07T05:00:09;16.10;99.90
22540;DHT22;11436;50.860;4.334;2022-08-07T05:05:35;16.30;99.90
22540;DHT22;11436;50.860;4.334;2022-08-07T05:08:07;16.50;99.90
22540;DHT22;11436;50.860;4.334;2022-08-07T05:10:42;16.50;99.90
22540;DHT22;11436;50.860;4.334;2022-08-07T05:13:20;16.50;99.90
22540;DHT22;11436;50.860;4.334;2022-08-07T05:15:52;16.30;99.90
22540;DHT22;11436;50.860;4.334;2022-08-07T05:18:28;16.20;99.90
22540;DHT22;11436;50.860;4.334;2022-08-07T05:21:01;16.20;99.90
22540;DHT22;11436;50.860;4.334;2022-08-07T05:26:11;16.10;99.90
22540;DHT22;11436;50.860;4.334;2022-08-07T05:28:39;16.20;99.90
22540;DHT22;11436;50.860;4.334;2022-08-07T05:31:06;16.20;99.90
22540;DHT22;11436;50.860;4.334;2022-08-07T05:33:33;16.30;99.90
22540;DHT22;11436;50.860;4.334;2022-08-07T05:36:01;16.30;99.90
22540;DHT22;11436;50.860;4.334;2022-08-07T05:38:28;16.30;99.90
22540;DHT22;11436;50.860;4.334;2022-08-07T05:40:54;16.20;99.90
22540;DHT22;11436;50.860;4.334;2022-08-07T05:43:21;16.30;99.90
22540;DHT22;11436;50.860;4.334;2022-08-07T05:45:47;16.20;99.90
22540;DHT22;11436;50.860;4.334;2022-08-07T05:48:14;16.30;99.90
22540;DHT22;11436;50.860;4.334;2022-08-07T05:50:41;16.30;99.90
22540;DHT22;11436;50.860;4.334;2022-08-07T05:53:08;16.30;99.90
22540;DHT22;11436;50.860;4.334;2022-08-07T05:55:35;16.40;99.90
22540;DHT22;11436;50.860;4.334;2022-08-07T05:58:02;16.40;99.90
22540;DHT22;11436;50.860;4.334;2022-08-07T06:00:29;16.40;99.90
22540;DHT22;11436;50.860;4.334;2022-08-07T06:02:57;16.40;99.90
22540;DHT22;11436;50.860;4.334;2022-08-07T06:05:24;16.50;99.90
22540;DHT22;11436;50.860;4.334;2022-08-07T06:07:54;16.50;99.90
22540;DHT22;11436;50.860;4.334;2022-08-07T06:10:21;16.60;99.90
22540;DHT22;11436;50.860;4.334;2022-08-07T06:12:47;16.60;99.90
22540;DHT22;11436;50.860;4.334;2022-08-07T06:15:14;16.70;99.90
22540;DHT22;11436;50.860;4.334;2022-08-07T06:17:42;16.80;99.90
22540;DHT22;11436;50.860;4.334;2022-08-07T06:20:09;16.80;99.90
22540;DHT22;11436;50.860;4.334;2022-08-07T06:22:36;16.90;99.90
22540;DHT22;11436;50.860;4.334;2022-08-07T06:25:03;16.90;99.90
22540;DHT22;11436;50.860;4.334;2022-08-07T06:27:29;17.00;99.90
22540;DHT22;11436;50.860;4.334;2022-08-07T06:29:55;17.10;99.90
22540;DHT22;11436;50.860;4.334;2022-08-07T06:32:21;17.40;99.90
22540;DHT22;11436;50.860;4.334;2022-08-07T06:34:46;17.40;99.90
22540;DHT22;11436;50.860;4.334;2022-08-07T06:37:12;17.50;99.90
22540;DHT22;11436;50.860;4.334;2022-08-07T06:39:38;17.40;99.90
22540;DHT22;11436;50.860;4.334;2022-08-07T06:42:14;17.30;99.90
22540;DHT22;11436;50.860;4.334;2022-08-07T06:44:44;17.30;99.90
22540;DHT22;11436;50.860;4.334;2022-08-07T06:47:10;17.30;99.90
22540;DHT22;11436;50.860;4.334;2022-08-07T06:49:36;17.40;99.90
22540;DHT22;11436;50.860;4.334;2022-08-07T06:52:02;17.60;99.90
22540;DHT22;11436;50.860;4.334;2022-08-07T06:54:30;18.00;99.90
22540;DHT22;11436;50.860;4.334;2022-08-07T06:56:57;18.40;99.90
22540;DHT22;11436;50.860;4.334;2022-08-07T06:59:26;18.40;99.90
22540;DHT22;11436;50.860;4.334;2022-08-07T07:01:55;18.30;99.90
22540;DHT22;11436;50.860;4.334;2022-08-07T07:04:24;18.20;99.90
22540;DHT22;11436;50.860;4.334;2022-08-07T07:06:50;18.20;99.90
22540;DHT22;11436;50.860;4.334;2022-08-07T07:09:25;18.20;99.90
22540;DHT22;11436;50.860;4.334;2022-08-07T07:17:04;18.20;99.90
22540;DHT22;11436;50.860;4.334;2022-08-07T07:19:39;18.20;99.90
22540;DHT22;11436;50.860;4.334;2022-08-07T07:22:09;18.20;99.90
22540;DHT22;11436;50.860;4.334;2022-08-07T07:24:37;18.10;99.90
22540;DHT22;11436;50.860;4.334;2022-08-07T07:27:05;18.20;99.90
22540;DHT22;11436;50.860;4.334;2022-08-07T07:29:39;18.10;99.90
22540;DHT22;11436;50.860;4.334;2022-08-07T07:32:10;18.40;99.90
22540;DHT22;11436;50.860;4.334;2022-08-07T07:34:41;19.10;99.90
22540;DHT22;11436;50.860;4.334;2022-08-07T07:37:09;19.30;99.90
22540;DHT22;11436;50.860;4.334;2022-08-07T07:39:37;19.10;99.90
22540;DHT22;11436;50.860;4.334;2022-08-07T07:42:04;18.90;99.90
22540;DHT22;11436;50.860;4.334;2022-08-07T07:44:32;18.80;99.90
22540;DHT22;11436;50.860;4.334;2022-08-07T07:47:00;18.70;99.90
22540;DHT22;11436;50.860;4.334;2022-08-07T07:49:27;18.60;99.90
22540;DHT22;11436;50.860;4.334;2022-08-07T07:51:56;18.60;99.90
22540;DHT22;11436;50.860;4.334;2022-08-07T07:54:23;18.60;99.90
22540;DHT22;11436;50.860;4.334;2022-08-07T07:56:49;18.60;99.90
22540;DHT22;11436;50.860;4.334;2022-08-07T07:59:18;18.60;99.90
22540;DHT22;11436;50.860;4.334;2022-08-07T08:01:45;18.70;99.90
22540;DHT22;11436;50.860;4.334;2022-08-07T08:04:13;19.00;99.90
22540;DHT22;11436;50.860;4.334;2022-08-07T08:06:42;19.00;99.90
22540;DHT22;11436;50.860;4.334;2022-08-07T08:09:09;19.00;99.90
22540;DHT22;11436;50.860;4.334;2022-08-07T08:11:36;19.00;99.90
22540;DHT22;11436;50.860;4.334;2022-08-07T08:14:02;19.10;99.90
22540;DHT22;11436;50.860;4.334;2022-08-07T08:16:36;19.20;99.90
22540;DHT22;11436;50.860;4.334;2022-08-07T08:19:05;19.40;99.90
22540;DHT22;11436;50.860;4.334;2022-08-07T08:21:34;19.40;99.90
22540;DHT22;11436;50.860;4.334;2022-08-07T08:24:21;19.20;99.90
22540;DHT22;11436;50.860;4.334;2022-08-07T08:27:08;19.20;99.90
22540;DHT22;11436;50.860;4.334;2022-08-07T08:30:01;19.30;99.90
22540;DHT22;11436;50.860;4.334;2022-08-07T08:32:28;19.40;99.90
22540;DHT22;11436;50.860;4.334;2022-08-07T08:34:57;19.20;99.90
22540;DHT22;11436;50.860;4.334;2022-08-07T08:37:26;19.30;99.90
22540;DHT22;11436;50.860;4.334;2022-08-07T08:39:53;19.30;99.90
22540;DHT22;11436;50.860;4.334;2022-08-07T08:42:45;19.40;99.90
22540;DHT22;11436;50.860;4.334;2022-08-07T08:45:51;19.40;99.90
22540;DHT22;11436;50.860;4.334;2022-08-07T08:48:34;19.50;99.90
22540;DHT22;11436;50.860;4.334;2022-08-07T08:54:01;19.80;99.90
22540;DHT22;11436;50.860;4.334;2022-08-07T08:56:49;19.60;99.90
22540;DHT22;11436;50.860;4.334;2022-08-07T09:05:03;19.60;99.90
22540;DHT22;11436;50.860;4.334;2022-08-07T09:15:35;19.40;99.90
22540;DHT22;11436;50.860;4.334;2022-08-07T09:27:02;20.10;99.90
22540;DHT22;11436;50.860;4.334;2022-08-07T09:29:56;20.00;99.90
22540;DHT22;11436;50.860;4.334;2022-08-07T09:35:35;19.80;99.90
22540;DHT22;11436;50.860;4.334;2022-08-07T09:43:35;20.20;99.90
22540;DHT22;11436;50.860;4.334;2022-08-07T09:49:21;20.60;99.90
22540;DHT22;11436;50.860;4.334;2022-08-07T09:54:46;20.70;99.90
22540;DHT22;11436;50.860;4.334;2022-08-07T09:57:38;20.60;99.90
22540;DHT22;11436;50.860;4.334;2022-08-07T10:00:13;20.50;99.90
22540;DHT22;11436;50.860;4.334;2022-08-07T10:06:10;20.60;99.90
22540;DHT22;11436;50.860;4.334;2022-08-07T10:19:47;21.30;99.90
22540;DHT22;11436;50.860;4.334;2022-08-07T10:38:51;21.50;99.90
22540;DHT22;11436;50.860;4.334;2022-08-07T10:42:03;21.60;99.90
22540;DHT22;11436;50.860;4.334;2022-08-07T10:44:28;22.00;99.90
22540;DHT22;11436;50.860;4.334;2022-08-07T10:47:23;21.90;99.90
22540;DHT22;11436;50.860;4.334;2022-08-07T10:50:16;22.00;99.90
22540;DHT22;11436;50.860;4.334;2022-08-07T10:55:16;22.10;99.90
22540;DHT22;11436;50.860;4.334;2022-08-07T10:57:50;22.10;99.90
22540;DHT22;11436;50.860;4.334;2022-08-07T11:00:17;22.00;99.90
22540;DHT22;11436;50.860;4.334;2022-08-07T11:03:04;22.00;99.90
22540;DHT22;11436;50.860;4.334;2022-08-07T11:11:15;22.50;99.90
22540;DHT22;11436;50.860;4.334;2022-08-07T11:13:57;22.50;99.90
22540;DHT22;11436;50.860;4.334;2022-08-07T11:16:28;22.50;99.90
22540;DHT22;11436;50.860;4.334;2022-08-07T11:19:05;22.50;99.90
22540;DHT22;11436;50.860;4.334;2022-08-07T11:24:36;22.60;99.90
22540;DHT22;11436;50.860;4.334;2022-08-07T11:30:04;22.00;99.90
22540;DHT22;11436;50.860;4.334;2022-08-07T11:37:49;22.40;99.90
22540;DHT22;11436;50.860;4.334;2022-08-07T11:40:32;22.40;99.90
22540;DHT22;11436;50.860;4.334;2022-08-07T11:43:03;22.40;99.90
22540;DHT22;11436;50.860;4.334;2022-08-07T11:48:21;22.30;99.90
22540;DHT22;11436;50.860;4.334;2022-08-07T12:01:55;22.70;99.90
22540;DHT22;11436;50.860;4.334;2022-08-07T12:07:00;23.20;99.90
22540;DHT22;11436;50.860;4.334;2022-08-07T12:12:18;23.50;99.90
22540;DHT22;11436;50.860;4.334;2022-08-07T12:14:57;23.20;99.90
22540;DHT22;11436;50.860;4.334;2022-08-07T12:17:44;23.40;99.90
22540;DHT22;11436;50.860;4.334;2022-08-07T12:20:46;23.60;99.90
22540;DHT22;11436;50.860;4.334;2022-08-07T12:26:03;23.30;99.90
22540;DHT22;11436;50.860;4.334;2022-08-07T12:31:42;23.10;99.90
22540;DHT22;11436;50.860;4.334;2022-08-07T12:34:09;23.30;99.90
22540;DHT22;11436;50.860;4.334;2022-08-07T12:36:37;24.50;99.90
22540;DHT22;11436;50.860;4.334;2022-08-07T12:39:04;25.30;99.90
22540;DHT22;11436;50.860;4.334;2022-08-07T12:41:33;26.50;99.90
22540;DHT22;11436;50.860;4.334;2022-08-07T12:44:04;26.90;99.90
22540;DHT22;11436;50.860;4.334;2022-08-07T12:50:20;26.90;99.90
22540;DHT22;11436;50.860;4.334;2022-08-07T12:52:55;28.50;99.90
22540;DHT22;11436;50.860;4.334;2022-08-07T12:55:42;29.90;99.90
22540;DHT22;11436;50.860;4.334;2022-08-07T12:58:13;29.80;98.70
22540;DHT22;11436;50.860;4.334;2022-08-07T13:01:18;30.70;96.60
22540;DHT22;11436;50.860;4.334;2022-08-07T13:12:25;30.00;92.00
22540;DHT22;11436;50.860;4.334;2022-08-07T13:14:58;31.40;90.80
22540;DHT22;11436;50.860;4.334;2022-08-07T13:18:14;31.40;90.20
22540;DHT22;11436;50.860;4.334;2022-08-07T13:20:38;31.80;90.40
22540;DHT22;11436;50.860;4.334;2022-08-07T13:23:28;32.70;89.00
22540;DHT22;11436;50.860;4.334;2022-08-07T13:28:58;31.30;86.00
22540;DHT22;11436;50.860;4.334;2022-08-07T13:31:32;31.70;85.20
22540;DHT22;11436;50.860;4.334;2022-08-07T13:37:07;32.30;84.40
22540;DHT22;11436;50.860;4.334;2022-08-07T13:42:12;32.30;82.30
22540;DHT22;11436;50.860;4.334;2022-08-07T13:44:41;32.70;82.10
22540;DHT22;11436;50.860;4.334;2022-08-07T13:47:09;32.50;81.60
22540;DHT22;11436;50.860;4.334;2022-08-07T13:49:44;32.10;79.30
22540;DHT22;11436;50.860;4.334;2022-08-07T13:52:10;31.80;79.90
22540;DHT22;11436;50.860;4.334;2022-08-07T13:54:39;32.00;79.20
22540;DHT22;11436;50.860;4.334;2022-08-07T13:57:09;31.60;80.60
22540;DHT22;11436;50.860;4.334;2022-08-07T13:59:42;32.70;79.40
22540;DHT22;11436;50.860;4.334;2022-08-07T14:02:12;32.80;77.10
22540;DHT22;11436;50.860;4.334;2022-08-07T14:07:08;33.90;75.90
22540;DHT22;11436;50.860;4.334;2022-08-07T14:09:37;34.40;74.80
22540;DHT22;11436;50.860;4.334;2022-08-07T14:14:59;34.90;72.70
22540;DHT22;11436;50.860;4.334;2022-08-07T14:17:28;34.50;71.70
22540;DHT22;11436;50.860;4.334;2022-08-07T14:20:18;34.10;71.80
22540;DHT22;11436;50.860;4.334;2022-08-07T14:22:58;34.50;70.60
22540;DHT22;11436;50.860;4.334;2022-08-07T14:25:25;35.10;70.70
22540;DHT22;11436;50.860;4.334;2022-08-07T14:27:54;34.50;68.50
22540;DHT22;11436;50.860;4.334;2022-08-07T14:30:21;34.20;69.50
22540;DHT22;11436;50.860;4.334;2022-08-07T14:32:55;34.20;69.60
22540;DHT22;11436;50.860;4.334;2022-08-07T14:35:24;35.00;69.40
22540;DHT22;11436;50.860;4.334;2022-08-07T14:37:52;35.80;67.00
22540;DHT22;11436;50.860;4.334;2022-08-07T14:40:22;34.90;65.50
22540;DHT22;11436;50.860;4.334;2022-08-07T14:42:57;35.70;66.90
22540;DHT22;11436;50.860;4.334;2022-08-07T14:45:28;35.10;65.50
22540;DHT22;11436;50.860;4.334;2022-08-07T14:47:56;34.40;66.10
22540;DHT22;11436;50.860;4.334;2022-08-07T14:50:23;34.00;66.80
22540;DHT22;11436;50.860;4.334;2022-08-07T14:52:51;34.40;66.00
22540;DHT22;11436;50.860;4.334;2022-08-07T14:55:19;34.10;66.10
22540;DHT22;11436;50.860;4.334;2022-08-07T14:57:48;34.40;66.20
22540;DHT22;11436;50.860;4.334;2022-08-07T15:00:15;34.00;66.30
22540;DHT22;11436;50.860;4.334;2022-08-07T15:02:45;34.50;66.60
22540;DHT22;11436;50.860;4.334;2022-08-07T15:05:16;34.50;64.70
22540;DHT22;11436;50.860;4.334;2022-08-07T15:07:44;33.50;66.00
22540;DHT22;11436;50.860;4.334;2022-08-07T15:10:16;34.10;65.60
22540;DHT22;11436;50.860;4.334;2022-08-07T15:12:43;33.70;64.60
22540;DHT22;11436;50.860;4.334;2022-08-07T15:15:12;34.20;65.20
22540;DHT22;11436;50.860;4.334;2022-08-07T15:17:44;34.20;64.40
22540;DHT22;11436;50.860;4.334;2022-08-07T15:20:15;35.50;63.90
22540;DHT22;11436;50.860;4.334;2022-08-07T15:22:50;36.40;61.40
22540;DHT22;11436;50.860;4.334;2022-08-07T15:25:22;36.00;62.10
22540;DHT22;11436;50.860;4.334;2022-08-07T15:27:55;36.00;61.20
22540;DHT22;11436;50.860;4.334;2022-08-07T15:30:24;36.60;59.60
22540;DHT22;11436;50.860;4.334;2022-08-07T15:32:51;35.90;59.60
22540;DHT22;11436;50.860;4.334;2022-08-07T15:35:20;35.70;59.40
22540;DHT22;11436;50.860;4.334;2022-08-07T15:37:52;36.40;58.70
22540;DHT22;11436;50.860;4.334;2022-08-07T15:40:19;36.20;58.80
22540;DHT22;11436;50.860;4.334;2022-08-07T15:42:54;35.60;58.50
22540;DHT22;11436;50.860;4.334;2022-08-07T15:45:29;35.70;58.90
22540;DHT22;11436;50.860;4.334;2022-08-07T15:50:33;33.40;61.30
22540;DHT22;11436;50.860;4.334;2022-08-07T15:53:06;32.00;61.70
22540;DHT22;11436;50.860;4.334;2022-08-07T15:55:34;32.60;63.80
22540;DHT22;11436;50.860;4.334;2022-08-07T15:58:02;32.90;61.20
22540;DHT22;11436;50.860;4.334;2022-08-07T16:00:34;32.90;62.30
22540;DHT22;11436;50.860;4.334;2022-08-07T16:03:05;32.30;63.30
22540;DHT22;11436;50.860;4.334;2022-08-07T16:05:33;33.20;61.50
22540;DHT22;11436;50.860;4.334;2022-08-07T16:08:23;33.10;61.30
22540;DHT22;11436;50.860;4.334;2022-08-07T16:11:03;33.30;61.30
22540;DHT22;11436;50.860;4.334;2022-08-07T16:14:32;32.90;62.50
22540;DHT22;11436;50.860;4.334;2022-08-07T16:24:32;29.70;67.80
22540;DHT22;11436;50.860;4.334;2022-08-07T16:30:04;28.40;71.10
22540;DHT22;11436;50.860;4.334;2022-08-07T16:32:53;28.20;71.60
22540;DHT22;11436;50.860;4.334;2022-08-07T16:35:45;27.70;72.70
22540;DHT22;11436;50.860;4.334;2022-08-07T16:38:17;27.40;74.10
22540;DHT22;11436;50.860;4.334;2022-08-07T16:41:14;27.30;75.00
22540;DHT22;11436;50.860;4.334;2022-08-07T16:52:38;27.00;78.30
22540;DHT22;11436;50.860;4.334;2022-08-07T16:55:51;26.70;79.60
22540;DHT22;11436;50.860;4.334;2022-08-07T17:06:37;25.80;83.30
22540;DHT22;11436;50.860;4.334;2022-08-07T17:12:14;25.40;87.50
22540;DHT22;11436;50.860;4.334;2022-08-07T17:14:45;25.40;88.80
22540;DHT22;11436;50.860;4.334;2022-08-07T17:20:04;25.30;90.10
22540;DHT22;11436;50.860;4.334;2022-08-07T17:22:37;25.00;90.90
22540;DHT22;11436;50.860;4.334;2022-08-07T17:25:13;24.80;91.70
22540;DHT22;11436;50.860;4.334;2022-08-07T17:27:57;24.70;92.40
22540;DHT22;11436;50.860;4.334;2022-08-07T17:30:31;24.60;93.00
22540;DHT22;11436;50.860;4.334;2022-08-07T17:33:17;24.60;93.60
22540;DHT22;11436;50.860;4.334;2022-08-07T17:36:11;24.60;93.90
22540;DHT22;11436;50.860;4.334;2022-08-07T17:43:56;24.50;95.30
22540;DHT22;11436;50.860;4.334;2022-08-07T17:49:22;24.50;96.40
22540;DHT22;11436;50.860;4.334;2022-08-07T17:52:52;24.50;96.60
22540;DHT22;11436;50.860;4.334;2022-08-07T17:55:15;24.30;96.50
22540;DHT22;11436;50.860;4.334;2022-08-07T17:57:49;23.90;98.00
22540;DHT22;11436;50.860;4.334;2022-08-07T18:00:23;23.80;98.50
22540;DHT22;11436;50.860;4.334;2022-08-07T18:05:57;23.70;99.80
22540;DHT22;11436;50.860;4.334;2022-08-07T18:11:33;23.50;99.90
22540;DHT22;11436;50.860;4.334;2022-08-07T18:14:44;23.50;99.90
22540;DHT22;11436;50.860;4.334;2022-08-07T18:17:47;23.40;99.90
22540;DHT22;11436;50.860;4.334;2022-08-07T18:20:24;23.30;99.90
22540;DHT22;11436;50.860;4.334;2022-08-07T18:23:03;23.30;99.90
22540;DHT22;11436;50.860;4.334;2022-08-07T18:25:33;23.00;99.90
22540;DHT22;11436;50.860;4.334;2022-08-07T18:42:13;22.80;99.90
22540;DHT22;11436;50.860;4.334;2022-08-07T19:01:38;22.10;99.90
22540;DHT22;11436;50.860;4.334;2022-08-07T19:07:07;21.90;99.90
22540;DHT22;11436;50.860;4.334;2022-08-07T19:09:45;21.90;99.90
22540;DHT22;11436;50.860;4.334;2022-08-07T19:12:18;21.90;99.90
22540;DHT22;11436;50.860;4.334;2022-08-07T19:14:49;21.80;99.90
22540;DHT22;11436;50.860;4.334;2022-08-07T19:17:18;21.70;99.90
22540;DHT22;11436;50.860;4.334;2022-08-07T19:20:05;21.70;99.90
22540;DHT22;11436;50.860;4.334;2022-08-07T19:23:20;21.60;99.90
22540;DHT22;11436;50.860;4.334;2022-08-07T19:25:49;21.40;99.90
22540;DHT22;11436;50.860;4.334;2022-08-07T19:28:30;21.40;99.90
22540;DHT22;11436;50.860;4.334;2022-08-07T19:31:09;21.30;99.90
22540;DHT22;11436;50.860;4.334;2022-08-07T19:33:38;21.30;99.90
22540;DHT22;11436;50.860;4.334;2022-08-07T19:36:06;21.30;99.90
22540;DHT22;11436;50.860;4.334;2022-08-07T19:38:37;21.30;99.90
22540;DHT22;11436;50.860;4.334;2022-08-07T19:41:04;21.20;99.90
22540;DHT22;11436;50.860;4.334;2022-08-07T19:43:31;21.10;99.90
22540;DHT22;11436;50.860;4.334;2022-08-07T19:46:01;21.10;99.90
22540;DHT22;11436;50.860;4.334;2022-08-07T19:48:38;21.00;99.90
22540;DHT22;11436;50.860;4.334;2022-08-07T19:51:05;20.90;99.90
22540;DHT22;11436;50.860;4.334;2022-08-07T19:53:31;20.90;99.90
22540;DHT22;11436;50.860;4.334;2022-08-07T19:56:05;20.80;99.90